Terminal Aerodrome Forecast
Issued by NWS Sioux Falls, SD

Home | Current Version | Previous Version | Graphics & Text | Print | Product List | Glossary On
Versions: 1 2 3 4 5 6 7 8 9 10 11 12 13 14 15 16 17 18 19
000
FTUS43 KFSD 010520
TAFHON
TAF
KHON 010520Z 0106/0206 19008KT P6SM BKN100
     FM010800 17006KT P6SM SCT015
      TEMPO 0108/0110 BKN015
     FM011000 16006KT P6SM OVC015
     FM011500 24007KT P6SM BKN100
     FM011900 32007KT P6SM BKN080=

USA.gov is the U.S. government's official web portal to all federal, state and local government web resources and services.